createdAt,value
2022-09-09T00:02:09.767Z,2.40
2022-09-09T00:04:38.538Z,1.52
2022-09-09T00:07:17.305Z,1.63
2022-09-09T00:09:50.290Z,2.00
2022-09-09T00:12:26.044Z,1.87
2022-09-09T00:15:15.281Z,2.13
2022-09-09T00:17:50.761Z,1.50
2022-09-09T00:20:25.517Z,1.85
2022-09-09T00:23:00.951Z,2.08
2022-09-09T00:25:55.074Z,2.03
2022-09-09T00:28:26.501Z,1.80
2022-09-09T00:30:53.248Z,2.47
2022-09-09T00:33:25.661Z,1.63
2022-09-09T00:35:57.420Z,1.70
2022-09-09T00:38:42.499Z,1.80
2022-09-09T00:41:20.231Z,1.75
2022-09-09T00:43:56.533Z,1.50
2022-09-09T00:46:24.796Z,2.00
2022-09-09T00:48:57.440Z,2.22
2022-09-09T00:51:48.855Z,1.70
2022-09-09T00:54:27.857Z,2.72
2022-09-09T00:57:04.711Z,1.70
2022-09-09T00:59:41.226Z,1.88
2022-09-09T01:02:19.112Z,2.03
2022-09-09T01:04:46.231Z,1.70
2022-09-09T01:07:20.071Z,1.85
2022-09-09T01:10:04.706Z,2.15
2022-09-09T01:15:21.196Z,2.03
2022-09-09T01:18:05.386Z,2.05
2022-09-09T01:21:03.103Z,1.95
2022-09-09T01:24:21.153Z,2.15
2022-09-09T01:27:08.742Z,1.63
2022-09-09T01:29:35.576Z,2.17
2022-09-09T01:32:40.170Z,2.10
2022-09-09T01:35:11.615Z,2.05
2022-09-09T01:37:39.359Z,2.15
2022-09-09T01:40:06.611Z,2.00
2022-09-09T01:42:34.790Z,2.15
2022-09-09T01:45:01.547Z,2.03
2022-09-09T01:47:28.329Z,2.38
2022-09-09T01:52:40.398Z,2.20
2022-09-09T01:55:11.867Z,2.30
2022-09-09T01:57:49.256Z,1.98
2022-09-09T02:00:17.473Z,1.80
2022-09-09T02:02:59.498Z,1.80
2022-09-09T02:05:42.755Z,2.97
2022-09-09T02:08:40.766Z,2.97
2022-09-09T02:11:23.911Z,2.22
2022-09-09T02:14:05.676Z,2.20
2022-09-09T02:16:58.195Z,1.85
2022-09-09T02:19:36.287Z,2.20
2022-09-09T02:22:13.430Z,2.00
2022-09-09T02:24:41.189Z,2.28
2022-09-09T02:27:23.995Z,1.83
2022-09-09T02:29:53.329Z,2.45
2022-09-09T02:32:33.409Z,2.50
2022-09-09T02:35:09.865Z,2.28
2022-09-09T02:37:39.545Z,2.08
2022-09-09T02:40:09.286Z,2.03
2022-09-09T02:42:41.258Z,1.98
2022-09-09T02:45:09.883Z,2.30
2022-09-09T02:47:42.473Z,1.95
2022-09-09T02:50:18.163Z,2.35
2022-09-09T02:53:17.348Z,2.17
2022-09-09T02:55:55.871Z,2.10
2022-09-09T02:58:24.436Z,1.90
2022-09-09T03:00:59.007Z,2.10
2022-09-09T03:03:26.664Z,2.13
2022-09-09T03:05:53.500Z,2.22
2022-09-09T03:08:20.135Z,2.00
2022-09-09T03:10:47.699Z,2.53
2022-09-09T03:13:16.334Z,2.90
2022-09-09T03:15:43.687Z,2.20
2022-09-09T03:18:15.430Z,2.90
2022-09-09T03:20:43.147Z,2.45
2022-09-09T03:23:15.438Z,2.83
2022-09-09T03:25:50.966Z,2.55
2022-09-09T03:28:21.803Z,2.60
2022-09-09T03:30:50.023Z,2.55
2022-09-09T03:33:17.315Z,2.85
2022-09-09T03:35:48.571Z,2.47
2022-09-09T03:38:15.776Z,2.10
2022-09-09T03:40:56.196Z,2.30
2022-09-09T03:43:24.179Z,1.83
2022-09-09T03:45:52.787Z,2.20
2022-09-09T03:48:20.357Z,1.70
2022-09-09T03:50:48.578Z,2.47
2022-09-09T03:53:17.121Z,2.55
2022-09-09T03:55:48.790Z,2.20
2022-09-09T03:58:17.039Z,2.10
2022-09-09T04:00:46.203Z,2.80
2022-09-09T04:03:13.181Z,2.03
2022-09-09T04:05:43.256Z,2.28
2022-09-09T04:08:10.596Z,2.20
2022-09-09T04:10:38.221Z,2.40
2022-09-09T04:13:05.942Z,2.22
2022-09-09T04:15:33.406Z,2.92
2022-09-09T04:18:00.080Z,2.58
2022-09-09T04:20:27.022Z,2.03
2022-09-09T04:22:53.540Z,2.78
2022-09-09T04:25:21.098Z,2.30
2022-09-09T04:27:48.598Z,3.28
2022-09-09T04:30:15.426Z,2.42
2022-09-09T04:32:42.657Z,2.50
2022-09-09T04:35:09.513Z,1.77
2022-09-09T04:37:36.608Z,2.50
2022-09-09T04:40:03.304Z,2.38
2022-09-09T04:42:31.060Z,2.78
2022-09-09T04:44:57.873Z,2.33
2022-09-09T04:47:24.453Z,1.85
2022-09-09T04:49:51.267Z,2.80
2022-09-09T04:52:18.355Z,2.42
2022-09-09T04:54:45.688Z,2.35
2022-09-09T04:57:16.612Z,2.53
2022-09-09T04:59:46.866Z,2.15
2022-09-09T05:02:13.592Z,2.53
2022-09-09T05:04:40.347Z,3.25
2022-09-09T05:07:07.922Z,2.58
2022-09-09T05:09:34.627Z,3.03
2022-09-09T05:12:01.907Z,2.47
2022-09-09T05:14:32.359Z,1.90
2022-09-09T05:17:00.968Z,2.85
2022-09-09T05:19:27.819Z,2.40
2022-09-09T05:21:54.746Z,2.53
2022-09-09T05:24:28.081Z,2.37
2022-09-09T05:26:59.154Z,2.10
2022-09-09T05:29:25.997Z,2.30
2022-09-09T05:31:52.828Z,2.10
2022-09-09T05:34:21.821Z,2.65
2022-09-09T05:36:49.402Z,2.25
2022-09-09T05:39:16.435Z,1.95
2022-09-09T05:41:43.022Z,2.50
2022-09-09T05:44:09.606Z,2.78
2022-09-09T05:46:39.168Z,2.50
2022-09-09T05:49:06.603Z,2.53
2022-09-09T05:51:34.671Z,2.38
2022-09-09T05:54:15.799Z,2.20
2022-09-09T05:56:49.842Z,2.25
2022-09-09T05:59:18.113Z,1.80
2022-09-09T06:01:46.253Z,2.70
2022-09-09T06:04:41.938Z,2.85
2022-09-09T06:07:08.692Z,2.50
2022-09-09T06:09:35.886Z,2.63
2022-09-09T06:12:02.734Z,2.40
2022-09-09T06:14:31.568Z,2.33
2022-09-09T06:17:00.014Z,2.50
2022-09-09T06:19:29.890Z,2.60
2022-09-09T06:21:58.607Z,2.00
2022-09-09T06:24:25.548Z,2.78
2022-09-09T06:26:52.155Z,2.30
2022-09-09T06:29:24.363Z,2.50
2022-09-09T06:31:52.495Z,3.75
2022-09-09T06:34:24.371Z,2.50
2022-09-09T06:36:54.890Z,2.17
2022-09-09T06:39:22.640Z,2.17
2022-09-09T06:41:50.775Z,2.40
2022-09-09T06:44:36.041Z,2.10
2022-09-09T06:47:05.145Z,2.88
2022-09-09T06:49:33.198Z,2.40
2022-09-09T06:52:01.074Z,3.25
2022-09-09T06:54:29.604Z,2.65
2022-09-09T06:56:56.627Z,2.50
2022-09-09T06:59:24.032Z,2.35
2022-09-09T07:01:56.226Z,2.15
2022-09-09T07:04:23.615Z,2.38
2022-09-09T07:06:50.360Z,2.05
2022-09-09T07:09:21.641Z,2.85
2022-09-09T07:11:54.898Z,4.70
2022-09-09T07:14:23.502Z,2.00
2022-09-09T07:16:59.364Z,2.10
2022-09-09T07:19:27.016Z,2.60
2022-09-09T07:21:55.078Z,2.38
2022-09-09T07:24:24.194Z,1.88
2022-09-09T07:26:50.906Z,3.67
2022-09-09T07:29:20.811Z,1.80
2022-09-09T07:31:49.355Z,2.00
2022-09-09T07:34:20.659Z,2.08
2022-09-09T07:36:47.779Z,1.88
2022-09-09T07:39:15.747Z,2.30
2022-09-09T07:41:49.351Z,1.97
2022-09-09T07:44:25.918Z,1.80
2022-09-09T07:47:09.556Z,2.50
2022-09-09T07:49:40.437Z,2.00
2022-09-09T07:52:08.494Z,1.83
2022-09-09T07:54:36.522Z,1.95
2022-09-09T07:57:05.617Z,2.17
2022-09-09T07:59:35.189Z,1.48
2022-09-09T08:02:02.945Z,1.67
2022-09-09T08:04:32.318Z,2.00
2022-09-09T08:07:02.070Z,2.35
2022-09-09T08:09:30.876Z,1.80
2022-09-09T08:12:10.514Z,2.20
2022-09-09T08:14:37.338Z,1.50
2022-09-09T08:17:04.079Z,1.90
2022-09-09T08:19:35.142Z,1.67
2022-09-09T08:22:03.869Z,2.20
2022-09-09T08:24:32.180Z,1.73
2022-09-09T08:26:58.822Z,1.90
2022-09-09T08:29:25.400Z,1.80
2022-09-09T08:31:58.204Z,1.95
2022-09-09T08:34:28.157Z,1.92
2022-09-09T08:36:56.934Z,2.17
2022-09-09T08:39:29.936Z,1.60
2022-09-09T08:42:24.077Z,1.40
2022-09-09T08:45:13.464Z,1.65
2022-09-09T08:47:50.396Z,1.45
2022-09-09T08:50:23.237Z,1.75
2022-09-09T08:52:58.365Z,1.65
2022-09-09T08:55:47.019Z,1.75
2022-09-09T08:58:33.812Z,1.50
2022-09-09T09:01:03.536Z,1.38
2022-09-09T09:03:36.734Z,2.28
2022-09-09T09:06:31.523Z,1.40
2022-09-09T09:09:21.291Z,1.73
2022-09-09T09:11:54.405Z,1.55
2022-09-09T09:14:24.523Z,1.30
2022-09-09T09:17:01.836Z,1.85
2022-09-09T09:19:31.200Z,1.63
2022-09-09T09:22:19.294Z,1.40
2022-09-09T09:24:59.150Z,2.17
2022-09-09T09:27:36.420Z,1.73
2022-09-09T09:30:29.399Z,1.40
2022-09-09T09:33:02.823Z,1.73
2022-09-09T09:35:29.453Z,1.33
2022-09-09T09:41:01.448Z,3.05
2022-09-09T09:43:32.414Z,1.73
2022-09-09T09:46:17.585Z,1.63
2022-09-09T09:48:47.429Z,1.67
2022-09-09T09:51:24.147Z,1.90
2022-09-09T09:53:53.857Z,1.42
2022-09-09T09:56:31.764Z,1.40
2022-09-09T09:58:59.774Z,1.40
2022-09-09T10:01:35.668Z,1.85
2022-09-09T10:04:18.098Z,1.85
2022-09-09T10:06:45.240Z,1.60
2022-09-09T10:09:25.519Z,1.58
2022-09-09T10:12:04.868Z,1.88
2022-09-09T10:14:36.341Z,1.77
2022-09-09T10:17:21.817Z,1.65
2022-09-09T10:20:12.586Z,1.10
2022-09-09T10:22:48.223Z,1.67
2022-09-09T10:25:45.298Z,1.60
2022-09-09T10:28:34.106Z,1.10
2022-09-09T10:31:31.342Z,1.50
2022-09-09T10:34:00.794Z,1.27
2022-09-09T10:36:28.881Z,1.83
2022-09-09T10:39:04.088Z,1.17
2022-09-09T10:41:57.092Z,1.80
2022-09-09T10:44:56.129Z,1.50
2022-09-09T10:47:45.374Z,1.52
2022-09-09T10:50:59.809Z,1.67
2022-09-09T10:53:37.400Z,1.33
2022-09-09T10:56:31.539Z,1.52
2022-09-09T10:59:05.788Z,1.10
2022-09-09T11:01:45.805Z,1.40
2022-09-09T11:04:23.134Z,1.30
2022-09-09T11:06:54.952Z,1.00
2022-09-09T11:09:33.978Z,1.30
2022-09-09T11:12:04.890Z,1.40
2022-09-09T11:14:47.284Z,1.50
2022-09-09T11:17:21.529Z,1.75
2022-09-09T11:19:48.442Z,1.63
2022-09-09T11:22:30.563Z,1.17
2022-09-09T11:25:09.687Z,1.52
2022-09-09T11:28:01.422Z,1.75
2022-09-09T11:30:55.040Z,1.20
2022-09-09T11:33:28.622Z,1.75
2022-09-09T11:36:13.277Z,1.60
2022-09-09T11:38:46.883Z,1.55
2022-09-09T11:41:19.533Z,2.10
2022-09-09T11:43:52.995Z,1.50
2022-09-09T11:46:40.872Z,2.38
2022-09-09T11:49:26.138Z,1.50
2022-09-09T11:51:52.757Z,1.98
2022-09-09T11:54:34.616Z,1.88
2022-09-09T11:57:02.837Z,1.20
2022-09-09T11:59:34.051Z,1.45
2022-09-09T12:02:33.179Z,1.20
2022-09-09T12:05:09.675Z,1.50
2022-09-09T12:07:43.814Z,1.23
2022-09-09T12:10:22.013Z,1.52
2022-09-09T12:12:48.632Z,1.20
2022-09-09T12:15:22.020Z,1.38
2022-09-09T12:17:54.340Z,2.47
2022-09-09T12:20:37.864Z,1.30
2022-09-09T12:23:34.478Z,1.58
2022-09-09T12:26:19.615Z,1.38
2022-09-09T12:28:58.393Z,0.88
2022-09-09T12:31:31.698Z,1.65
2022-09-09T12:34:11.037Z,0.90
2022-09-09T12:36:38.926Z,1.27
2022-09-09T12:39:36.945Z,1.88
2022-09-09T12:42:05.033Z,1.83
2022-09-09T12:44:33.477Z,1.70
2022-09-09T12:47:04.306Z,0.93
2022-09-09T12:49:40.078Z,1.70
2022-09-09T12:52:18.001Z,1.30
2022-09-09T12:54:47.866Z,2.15
2022-09-09T12:57:16.001Z,1.15
2022-09-09T12:59:49.172Z,1.00
2022-09-09T13:02:23.248Z,1.40
2022-09-09T13:04:51.539Z,1.52
2022-09-09T13:07:22.725Z,1.20
2022-09-09T13:09:50.371Z,2.00
2022-09-09T13:12:21.975Z,1.23
2022-09-09T13:14:52.048Z,1.15
2022-09-09T13:17:24.706Z,0.93
2022-09-09T13:19:53.886Z,1.30
2022-09-09T13:22:36.954Z,1.23
2022-09-09T13:25:27.003Z,1.38
2022-09-09T13:28:03.372Z,1.23
2022-09-09T13:30:37.231Z,1.58
2022-09-09T13:33:10.099Z,1.52
2022-09-09T13:35:50.432Z,1.35
2022-09-09T13:38:17.718Z,1.35
2022-09-09T13:40:55.614Z,1.30
2022-09-09T13:43:23.943Z,1.52
2022-09-09T13:46:00.929Z,1.00
2022-09-09T13:48:28.311Z,0.95
2022-09-09T13:50:59.924Z,2.03
2022-09-09T13:53:26.792Z,1.10
2022-09-09T13:55:54.473Z,1.52
2022-09-09T13:58:22.592Z,2.40
2022-09-09T14:00:49.554Z,1.17
2022-09-09T14:03:16.182Z,1.08
2022-09-09T14:05:43.406Z,1.27
2022-09-09T14:08:17.303Z,1.35
2022-09-09T14:13:10.368Z,1.08
2022-09-09T14:15:36.946Z,1.10
2022-09-09T14:18:03.660Z,1.00
2022-09-09T14:20:30.286Z,0.70
2022-09-09T14:23:03.210Z,1.02
2022-09-09T14:25:30.088Z,0.40
2022-09-09T14:27:57.263Z,0.55
2022-09-09T14:30:23.902Z,0.90
2022-09-09T14:32:50.442Z,0.82
2022-09-09T14:35:18.327Z,1.30
2022-09-09T14:37:45.684Z,1.25
2022-09-09T14:40:12.400Z,1.50
2022-09-09T14:42:39.026Z,1.02
2022-09-09T14:45:06.253Z,1.35
2022-09-09T14:47:33.270Z,0.90
2022-09-09T14:50:02.036Z,1.25
2022-09-09T14:52:30.437Z,0.90
2022-09-09T14:54:57.032Z,1.40
2022-09-09T14:57:23.754Z,1.55
2022-09-09T14:59:51.371Z,1.10
2022-09-09T15:02:18.100Z,1.00
2022-09-09T15:04:45.241Z,1.27
2022-09-09T15:07:11.929Z,1.13
2022-09-09T15:09:38.476Z,1.20
2022-09-09T15:12:05.724Z,1.35
2022-09-09T15:14:32.256Z,1.13
2022-09-09T15:16:58.796Z,0.63
2022-09-09T15:19:25.491Z,0.95
2022-09-09T15:21:52.537Z,1.15
2022-09-09T15:24:19.332Z,1.15
2022-09-09T15:26:46.053Z,0.75
2022-09-09T15:29:12.866Z,1.05
2022-09-09T15:31:39.467Z,1.17
2022-09-09T15:34:07.951Z,0.82
2022-09-09T15:36:39.245Z,1.08
2022-09-09T15:39:13.660Z,0.98
2022-09-09T15:41:40.798Z,1.00
2022-09-09T15:44:08.928Z,0.98
2022-09-09T15:46:38.433Z,1.63
2022-09-09T15:49:05.127Z,1.08
2022-09-09T15:51:42.164Z,1.40
2022-09-09T15:54:13.296Z,1.60
2022-09-09T15:56:40.673Z,2.00
2022-09-09T15:59:07.287Z,2.00
2022-09-09T16:01:34.790Z,1.40
2022-09-09T16:04:01.603Z,1.98
2022-09-09T16:06:30.420Z,1.70
2022-09-09T16:08:59.095Z,1.42
2022-09-09T16:11:32.178Z,1.35
2022-09-09T16:13:59.572Z,1.40
2022-09-09T16:16:29.245Z,1.50
2022-09-09T16:18:58.471Z,1.42
2022-09-09T16:21:33.939Z,1.48
2022-09-09T16:24:02.157Z,1.50
2022-09-09T16:26:31.720Z,1.00
2022-09-09T16:28:59.932Z,1.77
2022-09-09T16:31:28.292Z,1.25
2022-09-09T16:33:55.562Z,1.10
2022-09-09T16:36:24.964Z,1.35
2022-09-09T16:38:56.171Z,1.60
2022-09-09T16:41:23.166Z,1.35
2022-09-09T16:43:56.378Z,1.35
2022-09-09T16:46:25.152Z,1.20
2022-09-09T16:48:53.071Z,1.15
2022-09-09T16:51:28.455Z,1.65
2022-09-09T16:53:56.413Z,2.50
2022-09-09T16:56:26.312Z,1.20
2022-09-09T16:58:56.675Z,1.40
2022-09-09T17:01:28.690Z,1.05
2022-09-09T17:04:00.807Z,1.20
2022-09-09T17:06:29.941Z,1.50
2022-09-09T17:08:58.507Z,1.20
2022-09-09T17:11:25.847Z,1.33
2022-09-09T17:13:53.981Z,1.10
2022-09-09T17:16:22.956Z,0.93
2022-09-09T17:18:51.523Z,1.17
2022-09-09T17:21:21.206Z,1.08
2022-09-09T17:23:48.244Z,1.30
2022-09-09T17:26:17.639Z,1.23
2022-09-09T17:28:46.649Z,1.13
2022-09-09T17:31:16.157Z,1.08
2022-09-09T17:33:47.100Z,1.05
2022-09-09T17:36:23.278Z,1.60
2022-09-09T17:38:50.697Z,1.15
2022-09-09T17:41:22.843Z,1.00
2022-09-09T17:43:50.902Z,1.10
2022-09-09T17:46:23.067Z,1.05
2022-09-09T17:48:51.843Z,1.23
2022-09-09T17:51:21.208Z,1.45
2022-09-09T17:53:50.268Z,1.10
2022-09-09T17:56:21.087Z,1.40
2022-09-09T17:58:48.424Z,1.38
2022-09-09T18:01:17.731Z,1.55
2022-09-09T18:03:45.791Z,1.00
2022-09-09T18:06:17.387Z,1.30
2022-09-09T18:08:49.262Z,1.55
2022-09-09T18:11:16.587Z,1.60
2022-09-09T18:13:43.622Z,1.13
2022-09-09T18:16:10.808Z,1.00
2022-09-09T18:18:37.826Z,1.55
2022-09-09T18:21:08.180Z,1.30
2022-09-09T18:23:37.452Z,1.00
2022-09-09T18:26:12.199Z,1.25
2022-09-09T18:28:40.367Z,1.48
2022-09-09T18:31:12.799Z,1.88
2022-09-09T18:33:41.236Z,1.50
2022-09-09T18:36:10.542Z,1.02
2022-09-09T18:38:38.599Z,1.65
2022-09-09T18:41:15.615Z,1.52
2022-09-09T18:43:43.030Z,1.60
2022-09-09T18:46:11.278Z,1.13
2022-09-09T18:48:38.840Z,1.45
2022-09-09T18:51:07.798Z,1.80
2022-09-09T18:53:35.660Z,1.23
2022-09-09T18:56:07.331Z,2.50
2022-09-09T18:58:34.927Z,1.20
2022-09-09T19:01:03.075Z,1.60
2022-09-09T19:03:31.100Z,1.27
2022-09-09T19:06:06.704Z,1.40
2022-09-09T19:08:38.314Z,1.67
2022-09-09T19:11:07.375Z,1.50
2022-09-09T19:13:35.093Z,1.65
2022-09-09T19:16:10.402Z,1.80
2022-09-09T19:18:37.419Z,1.30
2022-09-09T19:21:18.986Z,1.63
2022-09-09T19:23:47.618Z,1.58
2022-09-09T19:26:17.777Z,2.08
2022-09-09T19:28:49.965Z,1.80
2022-09-09T19:31:19.009Z,2.13
2022-09-09T19:33:47.308Z,2.30
2022-09-09T19:36:17.881Z,1.90
2022-09-09T19:38:46.267Z,1.70
2022-09-09T19:41:18.581Z,2.05
2022-09-09T19:43:45.444Z,1.55
2022-09-09T19:46:13.876Z,1.60
2022-09-09T19:48:41.721Z,1.95
2022-09-09T19:51:11.649Z,1.98
2022-09-09T19:53:44.718Z,1.48
2022-09-09T19:56:11.760Z,1.87
2022-09-09T19:58:40.093Z,1.90
2022-09-09T20:01:11.413Z,2.10
2022-09-09T20:03:39.266Z,2.00
2022-09-09T20:06:07.320Z,2.10
2022-09-09T20:08:35.457Z,2.20
2022-09-09T20:11:02.787Z,1.70
2022-09-09T20:13:30.890Z,1.80
2022-09-09T20:16:03.925Z,1.90
2022-09-09T20:18:32.471Z,2.30
2022-09-09T20:21:00.739Z,1.88
2022-09-09T20:23:30.828Z,1.40
2022-09-09T20:26:03.058Z,1.88
2022-09-09T20:28:29.893Z,1.80
2022-09-09T20:30:56.584Z,1.88
2022-09-09T20:33:23.171Z,2.50
2022-09-09T20:35:49.805Z,2.95
2022-09-09T20:38:16.394Z,2.72
2022-09-09T20:40:42.922Z,2.30
2022-09-09T20:43:12.717Z,1.83
2022-09-09T20:45:39.606Z,1.50
2022-09-09T20:48:07.341Z,1.67
2022-09-09T20:50:36.948Z,1.75
2022-09-09T20:53:04.311Z,1.80
2022-09-09T20:55:32.412Z,1.90
2022-09-09T20:58:00.314Z,1.67
2022-09-09T21:00:27.016Z,1.98
2022-09-09T21:02:53.583Z,2.20
2022-09-09T21:05:23.878Z,2.70
2022-09-09T21:07:50.888Z,2.30
2022-09-09T21:10:18.217Z,2.20
2022-09-09T21:12:45.123Z,1.90
2022-09-09T21:15:11.860Z,2.10
2022-09-09T21:17:40.290Z,2.25
2022-09-09T21:20:07.568Z,2.22
2022-09-09T21:22:34.149Z,2.20
2022-09-09T21:25:00.786Z,1.88
2022-09-09T21:27:27.362Z,2.00
2022-09-09T21:29:53.983Z,2.28
2022-09-09T21:32:21.464Z,2.65
2022-09-09T21:34:47.985Z,2.17
2022-09-09T21:37:14.525Z,2.35
2022-09-09T21:39:41.273Z,2.50
2022-09-09T21:42:07.822Z,2.10
2022-09-09T21:44:34.387Z,3.08
2022-09-09T21:47:00.935Z,2.50
2022-09-09T21:49:27.523Z,2.30
2022-09-09T21:51:55.146Z,2.63
2022-09-09T21:54:21.795Z,3.15
2022-09-09T21:56:50.008Z,2.45
2022-09-09T21:59:16.533Z,1.92
2022-09-09T22:01:43.244Z,2.72
2022-09-09T22:04:09.839Z,2.17
2022-09-09T22:06:36.615Z,2.65
2022-09-09T22:09:03.675Z,2.10
2022-09-09T22:11:31.453Z,2.83
2022-09-09T22:13:58.155Z,2.30
2022-09-09T22:16:25.553Z,3.08
2022-09-09T22:18:56.773Z,2.70
2022-09-09T22:21:25.088Z,2.13
2022-09-09T22:24:02.835Z,2.95
2022-09-09T22:26:31.851Z,2.45
2022-09-09T22:28:59.469Z,2.65
2022-09-09T22:31:26.904Z,3.42
2022-09-09T22:33:54.047Z,3.60
2022-09-09T22:36:21.096Z,2.58
2022-09-09T22:38:49.051Z,4.65
2022-09-09T22:41:17.121Z,3.00
2022-09-09T22:43:43.972Z,3.17
2022-09-09T22:46:11.276Z,3.58
2022-09-09T22:48:39.128Z,3.00
2022-09-09T22:51:12.164Z,2.92
2022-09-09T22:53:42.927Z,3.22
2022-09-09T22:56:17.754Z,3.20
2022-09-09T22:58:44.905Z,3.20
2022-09-09T23:01:16.233Z,3.40
2022-09-09T23:03:46.204Z,2.83
2022-09-09T23:06:22.359Z,3.00
2022-09-09T23:08:57.729Z,2.78
2022-09-09T23:11:31.592Z,3.10
2022-09-09T23:16:39.737Z,3.00
2022-09-09T23:19:10.061Z,2.67
2022-09-09T23:21:38.461Z,2.97
2022-09-09T23:24:06.595Z,3.00
2022-09-09T23:26:33.950Z,2.53
2022-09-09T23:29:02.412Z,3.88
2022-09-09T23:31:33.209Z,3.30
2022-09-09T23:34:01.126Z,4.32
2022-09-09T23:36:29.687Z,2.80
2022-09-09T23:38:59.453Z,2.97
2022-09-09T23:41:27.020Z,2.90
2022-09-09T23:43:54.380Z,3.13
2022-09-09T23:46:25.272Z,3.65
2022-09-09T23:48:51.945Z,3.40
2022-09-09T23:51:24.077Z,4.00
2022-09-09T23:53:53.189Z,4.05
2022-09-09T23:56:27.875Z,3.05
2022-09-09T23:58:55.297Z,3.38
